createdAt,value
2022-08-22T00:01:20.535Z,67.76
2022-08-22T00:02:44.826Z,52.05
2022-08-22T00:02:52.898Z,54.37
2022-08-22T00:02:57.786Z,70.22
2022-08-22T00:04:14.252Z,66.70
2022-08-22T00:06:48.961Z,69.60
2022-08-22T00:09:29.447Z,70.42
2022-08-22T00:12:03.958Z,71.46
2022-08-22T00:15:02.155Z,72.09
2022-08-22T00:17:55.877Z,71.87
2022-08-22T00:20:54.537Z,71.48
2022-08-22T00:23:59.859Z,71.03
2022-08-22T00:26:45.479Z,70.99
2022-08-22T00:29:47.635Z,71.39
2022-08-22T00:32:35.351Z,72.09
2022-08-22T00:35:14.972Z,71.57
2022-08-22T00:37:46.058Z,68.73
2022-08-22T00:40:38.726Z,70.28
2022-08-22T00:43:30.113Z,71.71
2022-08-22T00:46:26.574Z,72.36
2022-08-22T00:48:56.050Z,73.47
2022-08-22T00:51:40.192Z,73.77
2022-08-22T00:54:34.332Z,73.91
2022-08-22T00:57:06.615Z,74.81
2022-08-22T00:59:52.040Z,76.25
2022-08-22T01:02:40.875Z,75.88
2022-08-22T01:05:22.628Z,77.02
2022-08-22T01:07:52.146Z,76.80
2022-08-22T01:10:33.390Z,78.54
2022-08-22T01:13:12.876Z,78.20
2022-08-22T01:15:42.527Z,78.25
2022-08-22T01:18:19.950Z,78.71
2022-08-22T01:21:46.583Z,77.91
2022-08-22T01:24:24.216Z,79.70
2022-08-22T01:26:56.900Z,78.35
2022-08-22T01:29:55.182Z,79.10
2022-08-22T01:32:47.349Z,79.52
2022-08-22T01:35:13.819Z,80.36
2022-08-22T01:38:04.978Z,75.64
2022-08-22T01:40:53.334Z,76.92
2022-08-22T01:44:00.728Z,77.72
2022-08-22T01:46:42.956Z,76.96
2022-08-22T01:49:18.526Z,73.28
2022-08-22T01:52:18.752Z,76.25
2022-08-22T01:55:03.154Z,78.92
2022-08-22T01:57:29.768Z,78.95
2022-08-22T02:00:08.663Z,78.66
2022-08-22T02:02:41.254Z,78.92
2022-08-22T02:05:17.211Z,79.11
2022-08-22T02:08:00.493Z,78.83
2022-08-22T02:11:04.410Z,78.54
2022-08-22T02:13:55.423Z,79.09
2022-08-22T02:16:31.135Z,79.62
2022-08-22T02:19:20.044Z,80.26
2022-08-22T02:21:53.502Z,80.28
2022-08-22T02:24:32.899Z,80.54
2022-08-22T02:27:17.555Z,80.79
2022-08-22T02:29:57.862Z,80.87
2022-08-22T02:32:36.484Z,80.95
2022-08-22T02:35:06.565Z,81.46
2022-08-22T02:37:47.007Z,80.95
2022-08-22T02:40:28.131Z,80.59
2022-08-22T02:43:18.060Z,81.35
2022-08-22T02:45:49.437Z,80.98
2022-08-22T02:48:34.076Z,81.43
2022-08-22T02:51:17.159Z,82.95
2022-08-22T02:53:52.651Z,82.76
2022-08-22T02:56:25.052Z,82.42
2022-08-22T02:58:59.999Z,82.39
2022-08-22T03:01:33.278Z,81.77
2022-08-22T03:04:32.246Z,82.19
2022-08-22T03:07:01.626Z,82.30
2022-08-22T03:09:37.540Z,82.11
2022-08-22T03:12:38.452Z,81.97
2022-08-22T03:15:13.275Z,79.01
2022-08-22T03:17:47.621Z,79.21
2022-08-22T03:20:35.434Z,78.08
2022-08-22T03:23:13.186Z,77.51
2022-08-22T03:25:50.748Z,75.23
2022-08-22T03:28:22.396Z,76.45
2022-08-22T03:30:57.840Z,79.00
2022-08-22T03:33:27.522Z,80.27
2022-08-22T03:36:06.544Z,81.37
2022-08-22T03:38:33.056Z,82.88
2022-08-22T03:41:17.976Z,83.32
2022-08-22T03:44:04.538Z,83.62
2022-08-22T03:46:57.474Z,83.45
2022-08-22T03:49:52.988Z,83.43
2022-08-22T03:53:10.446Z,83.85
2022-08-22T03:55:51.696Z,83.48
2022-08-22T03:58:33.574Z,82.82
2022-08-22T04:01:19.560Z,83.00
2022-08-22T04:04:19.117Z,83.75
2022-08-22T04:06:59.382Z,83.31
2022-08-22T04:10:07.971Z,82.93
2022-08-22T04:12:59.374Z,83.62
2022-08-22T04:16:12.522Z,84.02
2022-08-22T04:19:09.480Z,83.72
2022-08-22T04:21:56.191Z,84.24
2022-08-22T04:24:44.091Z,83.94
2022-08-22T04:27:31.439Z,83.89
2022-08-22T04:30:16.161Z,83.84
2022-08-22T04:32:57.025Z,82.95
2022-08-22T04:35:29.560Z,82.55
2022-08-22T04:38:04.292Z,82.42
2022-08-22T04:40:42.756Z,83.54
2022-08-22T04:43:17.238Z,83.90
2022-08-22T04:45:48.707Z,83.01
2022-08-22T04:48:15.944Z,82.07
2022-08-22T04:50:53.224Z,82.50
2022-08-22T04:53:42.216Z,83.39
2022-08-22T04:56:33.115Z,83.88
2022-08-22T04:59:17.150Z,84.39
2022-08-22T05:02:07.071Z,84.08
2022-08-22T05:04:43.315Z,83.99
2022-08-22T05:07:18.339Z,84.01
2022-08-22T05:09:56.449Z,84.09
2022-08-22T05:12:32.886Z,84.42
2022-08-22T05:15:22.890Z,83.87
2022-08-22T05:17:52.774Z,81.79
2022-08-22T05:20:23.251Z,81.05
2022-08-22T05:23:00.259Z,81.51
2022-08-22T05:25:31.306Z,81.95
2022-08-22T05:28:23.902Z,81.11
2022-08-22T05:30:51.275Z,80.53
2022-08-22T05:33:39.186Z,79.48
2022-08-22T05:36:33.116Z,78.73
2022-08-22T05:39:21.568Z,79.56
2022-08-22T05:41:52.468Z,78.59
2022-08-22T05:44:27.943Z,77.40
2022-08-22T05:47:05.421Z,77.29
2022-08-22T05:49:31.930Z,78.46
2022-08-22T05:52:22.986Z,77.76
2022-08-22T05:55:05.094Z,77.08
2022-08-22T05:57:37.005Z,76.84
2022-08-22T06:00:11.276Z,72.61
2022-08-22T06:03:06.071Z,72.04
2022-08-22T06:05:39.034Z,72.35
2022-08-22T06:08:21.253Z,70.98
2022-08-22T06:10:53.010Z,70.51
2022-08-22T06:13:30.025Z,71.35
2022-08-22T06:16:21.379Z,70.19
2022-08-22T06:18:50.560Z,68.28
2022-08-22T06:21:38.475Z,66.80
2022-08-22T06:24:12.990Z,67.30
2022-08-22T06:26:46.073Z,68.25
2022-08-22T06:29:22.130Z,67.80
2022-08-22T06:31:49.067Z,68.08
2022-08-22T06:34:23.595Z,67.40
2022-08-22T06:36:52.539Z,69.80
2022-08-22T06:39:24.208Z,69.45
2022-08-22T06:42:05.903Z,66.31
2022-08-22T06:44:35.463Z,65.41
2022-08-22T06:47:08.340Z,64.82
2022-08-22T06:49:37.622Z,64.70
2022-08-22T06:52:14.835Z,66.17
2022-08-22T06:54:46.597Z,64.94
2022-08-22T06:57:35.939Z,65.97
2022-08-22T07:00:08.573Z,67.02
2022-08-22T07:02:42.488Z,65.98
2022-08-22T07:05:36.916Z,66.81
2022-08-22T07:08:15.975Z,65.09
2022-08-22T07:10:45.489Z,64.46
2022-08-22T07:13:19.598Z,64.83
2022-08-22T07:15:54.444Z,66.67
2022-08-22T07:18:25.643Z,65.11
2022-08-22T07:20:57.039Z,64.42
2022-08-22T07:23:48.054Z,66.09
2022-08-22T07:26:25.723Z,64.94
2022-08-22T07:29:10.850Z,63.70
2022-08-22T07:31:53.455Z,64.18
2022-08-22T07:34:44.734Z,61.10
2022-08-22T07:37:39.793Z,60.45
2022-08-22T07:40:41.755Z,58.57
2022-08-22T07:43:20.012Z,58.37
2022-08-22T07:45:58.715Z,58.59
2022-08-22T07:49:13.023Z,58.25
2022-08-22T07:51:50.675Z,59.05
2022-08-22T07:54:27.366Z,58.96
2022-08-22T07:57:00.136Z,57.69
2022-08-22T07:59:28.513Z,56.95
2022-08-22T08:01:58.645Z,55.51
2022-08-22T08:04:38.085Z,55.69
2022-08-22T08:07:10.577Z,57.46
2022-08-22T08:09:50.453Z,57.28
2022-08-22T08:12:21.959Z,54.89
2022-08-22T08:14:53.428Z,54.91
2022-08-22T08:17:23.819Z,54.74
2022-08-22T08:19:51.891Z,57.06
2022-08-22T08:22:26.821Z,58.76
2022-08-22T08:24:59.905Z,58.12
2022-08-22T08:27:57.992Z,56.89
2022-08-22T08:30:36.599Z,54.63
2022-08-22T08:33:24.626Z,53.76
2022-08-22T08:36:03.533Z,52.44
2022-08-22T08:38:57.540Z,51.33
2022-08-22T08:41:47.022Z,52.25
2022-08-22T08:44:27.116Z,51.53
2022-08-22T08:47:20.731Z,51.82
2022-08-22T08:50:10.308Z,53.53
2022-08-22T08:52:58.594Z,52.65
2022-08-22T08:55:30.998Z,52.80
2022-08-22T08:58:03.279Z,51.99
2022-08-22T09:00:45.768Z,51.59
2022-08-22T09:03:54.201Z,51.76
2022-08-22T09:06:45.068Z,51.50
2022-08-22T09:09:38.392Z,51.05
2022-08-22T09:12:15.591Z,51.43
2022-08-22T09:14:44.716Z,50.09
2022-08-22T09:17:17.472Z,51.18
2022-08-22T09:19:59.694Z,50.82
2022-08-22T09:22:52.448Z,48.59
2022-08-22T09:25:27.903Z,48.03
2022-08-22T09:28:23.249Z,47.82
2022-08-22T09:30:58.179Z,46.77
2022-08-22T09:33:35.188Z,46.41
2022-08-22T09:36:19.877Z,45.27
2022-08-22T09:39:09.594Z,44.49
2022-08-22T09:42:06.839Z,45.94
2022-08-22T09:44:40.805Z,46.35
2022-08-22T09:47:35.103Z,44.65
2022-08-22T09:50:13.697Z,46.17
2022-08-22T09:52:54.693Z,45.73
2022-08-22T09:55:44.983Z,45.04
2022-08-22T09:58:15.472Z,44.33
2022-08-22T10:00:55.605Z,44.28
2022-08-22T10:03:24.812Z,43.88
2022-08-22T10:06:02.516Z,44.27
2022-08-22T10:08:39.636Z,43.96
2022-08-22T10:11:28.828Z,43.24
2022-08-22T10:14:43.636Z,45.15
2022-08-22T10:17:21.823Z,44.25
2022-08-22T10:19:59.088Z,44.17
2022-08-22T10:23:05.386Z,42.91
2022-08-22T10:25:42.298Z,42.73
2022-08-22T10:28:32.958Z,40.21
2022-08-22T10:31:05.415Z,41.45
2022-08-22T10:33:39.794Z,40.88
2022-08-22T10:36:59.496Z,41.53
2022-08-22T10:39:32.583Z,40.49
2022-08-22T10:42:23.181Z,41.95
2022-08-22T10:45:12.976Z,43.47
2022-08-22T10:47:52.965Z,43.50
2022-08-22T10:50:32.731Z,42.13
2022-08-22T10:53:23.354Z,44.41
2022-08-22T10:56:04.367Z,43.32
2022-08-22T10:58:38.949Z,45.21
2022-08-22T11:01:37.027Z,44.55
2022-08-22T11:04:46.097Z,41.44
2022-08-22T11:07:41.403Z,42.36
2022-08-22T11:10:34.849Z,42.23
2022-08-22T11:13:42.166Z,40.77
2022-08-22T11:16:24.138Z,38.72
2022-08-22T11:19:15.274Z,39.66
2022-08-22T11:22:00.112Z,38.96
2022-08-22T11:24:35.665Z,38.85
2022-08-22T11:27:17.721Z,39.51
2022-08-22T11:30:18.753Z,39.14
2022-08-22T11:33:10.255Z,40.94
2022-08-22T11:36:15.671Z,40.35
2022-08-22T11:38:54.126Z,40.70
2022-08-22T11:41:36.436Z,42.16
2022-08-22T11:44:07.099Z,40.96
2022-08-22T11:46:44.421Z,39.69
2022-08-22T11:49:26.817Z,40.32
2022-08-22T11:52:17.884Z,40.71
2022-08-22T11:54:59.785Z,40.16
2022-08-22T11:57:41.832Z,38.74
2022-08-22T12:00:20.871Z,38.49
2022-08-22T12:03:26.268Z,38.67
2022-08-22T12:05:58.799Z,40.97
2022-08-22T12:08:51.990Z,39.47
2022-08-22T12:11:33.327Z,39.48
2022-08-22T12:14:11.307Z,40.00
2022-08-22T12:16:59.886Z,39.25
2022-08-22T12:20:12.556Z,39.96
2022-08-22T12:23:00.670Z,39.31
2022-08-22T12:25:56.729Z,40.30
2022-08-22T12:28:36.123Z,39.90
2022-08-22T12:31:34.839Z,41.21
2022-08-22T12:34:20.871Z,39.21
2022-08-22T12:37:15.629Z,37.48
2022-08-22T12:40:17.733Z,39.73
2022-08-22T12:43:14.284Z,37.85
2022-08-22T12:46:13.133Z,39.48
2022-08-22T12:49:13.043Z,37.68
2022-08-22T12:51:59.864Z,37.73
2022-08-22T12:54:48.665Z,36.38
2022-08-22T12:57:27.424Z,36.83
2022-08-22T12:59:59.737Z,37.78
2022-08-22T13:02:34.668Z,38.53
2022-08-22T13:05:20.639Z,39.00
2022-08-22T13:08:17.511Z,37.15
2022-08-22T13:11:01.998Z,37.49
2022-08-22T13:13:37.177Z,37.40
2022-08-22T13:16:08.980Z,38.69
2022-08-22T13:19:07.370Z,38.30
2022-08-22T13:21:43.389Z,38.38
2022-08-22T13:24:16.783Z,37.87
2022-08-22T13:26:51.268Z,39.56
2022-08-22T13:29:42.698Z,39.46
2022-08-22T13:32:23.417Z,40.75
2022-08-22T13:34:56.539Z,39.35
2022-08-22T13:37:29.859Z,41.04
2022-08-22T13:40:02.162Z,37.99
2022-08-22T13:42:31.856Z,37.08
2022-08-22T13:45:04.790Z,38.94
2022-08-22T13:47:35.858Z,37.37
2022-08-22T13:50:14.772Z,37.84
2022-08-22T13:52:52.406Z,37.89
2022-08-22T13:55:35.191Z,38.18
2022-08-22T13:58:11.097Z,38.33
2022-08-22T14:00:57.305Z,39.09
2022-08-22T14:03:35.057Z,37.64
2022-08-22T14:06:35.206Z,36.87
2022-08-22T14:09:09.298Z,37.54
2022-08-22T14:12:00.251Z,37.52
2022-08-22T14:14:32.066Z,36.73
2022-08-22T14:16:59.665Z,36.46
2022-08-22T14:19:32.063Z,38.83
2022-08-22T14:22:32.079Z,37.26
2022-08-22T14:25:18.642Z,36.55
2022-08-22T14:27:56.110Z,36.86
2022-08-22T14:30:28.387Z,36.56
2022-08-22T14:33:18.235Z,36.64
2022-08-22T14:35:52.848Z,35.98
2022-08-22T14:38:35.588Z,36.38
2022-08-22T14:41:55.585Z,36.78
2022-08-22T14:44:31.246Z,37.33
2022-08-22T14:47:03.701Z,36.81
2022-08-22T14:49:48.960Z,36.42
2022-08-22T14:52:36.000Z,36.27
2022-08-22T14:55:08.323Z,36.59
2022-08-22T14:57:41.281Z,36.75
2022-08-22T15:00:13.698Z,36.94
2022-08-22T15:02:41.893Z,37.67
2022-08-22T15:05:19.870Z,38.69
2022-08-22T15:07:56.537Z,40.17
2022-08-22T15:10:33.220Z,38.35
2022-08-22T15:13:07.936Z,38.35
2022-08-22T15:15:41.088Z,38.30
2022-08-22T15:18:28.194Z,37.72
2022-08-22T15:21:12.406Z,38.92
2022-08-22T15:23:45.026Z,37.00
2022-08-22T15:26:23.099Z,37.99
2022-08-22T15:28:57.727Z,38.84
2022-08-22T15:31:24.982Z,36.88
2022-08-22T15:33:52.518Z,37.82
2022-08-22T15:36:26.084Z,38.48
2022-08-22T15:38:56.607Z,36.89
2022-08-22T15:41:36.135Z,36.99
2022-08-22T15:44:14.818Z,37.33
2022-08-22T15:46:57.679Z,36.51
2022-08-22T15:49:27.785Z,36.92
2022-08-22T15:52:03.465Z,36.70
2022-08-22T15:54:51.258Z,36.17
2022-08-22T15:57:31.865Z,36.39
2022-08-22T16:00:00.159Z,36.95
2022-08-22T16:02:53.191Z,37.44
2022-08-22T16:05:36.078Z,35.92
2022-08-22T16:08:25.866Z,35.90
2022-08-22T16:11:14.236Z,36.77
2022-08-22T16:13:44.223Z,37.37
2022-08-22T16:16:42.979Z,36.95
2022-08-22T16:19:17.307Z,36.65
2022-08-22T16:21:43.773Z,35.58
2022-08-22T16:24:10.209Z,35.44
2022-08-22T16:26:39.739Z,36.72
2022-08-22T16:29:17.538Z,37.19
2022-08-22T16:31:44.653Z,36.20
2022-08-22T16:34:17.313Z,35.16
2022-08-22T16:37:08.280Z,34.70
2022-08-22T16:39:41.087Z,34.27
2022-08-22T16:42:13.671Z,34.64
2022-08-22T16:44:47.383Z,34.83
2022-08-22T16:47:19.196Z,36.32
2022-08-22T16:49:51.674Z,35.70
2022-08-22T16:52:24.107Z,36.62
2022-08-22T16:55:01.341Z,35.27
2022-08-22T16:58:09.620Z,35.66
2022-08-22T17:00:36.378Z,35.42
2022-08-22T17:03:21.470Z,36.04
2022-08-22T17:05:56.794Z,38.55
2022-08-22T17:08:47.325Z,37.23
2022-08-22T17:11:51.399Z,35.37
2022-08-22T17:14:48.939Z,35.90
2022-08-22T17:17:24.520Z,35.54
2022-08-22T17:20:08.015Z,35.82
2022-08-22T17:22:58.054Z,39.35
2022-08-22T17:25:31.080Z,41.85
2022-08-22T17:28:34.326Z,42.65
2022-08-22T17:31:12.880Z,43.52
2022-08-22T17:33:52.056Z,43.83
2022-08-22T17:36:34.212Z,44.42
2022-08-22T17:39:32.255Z,44.60
2022-08-22T17:42:20.876Z,44.17
2022-08-22T17:45:05.848Z,44.28
2022-08-22T17:47:41.434Z,44.89
2022-08-22T17:50:18.785Z,45.37
2022-08-22T17:52:51.035Z,45.48
2022-08-22T17:55:52.626Z,45.93
2022-08-22T17:58:37.969Z,46.33
2022-08-22T18:01:35.240Z,46.55
2022-08-22T18:04:06.424Z,47.23
2022-08-22T18:06:47.037Z,47.65
2022-08-22T18:09:46.319Z,47.87
2022-08-22T18:12:39.373Z,47.90
2022-08-22T18:15:13.788Z,47.62
2022-08-22T18:17:51.730Z,47.25
2022-08-22T18:20:37.721Z,47.63
2022-08-22T18:23:21.805Z,47.53
2022-08-22T18:26:15.719Z,47.88
2022-08-22T18:29:20.110Z,47.58
2022-08-22T18:32:05.228Z,48.48
2022-08-22T18:34:51.151Z,48.96
2022-08-22T18:37:32.940Z,48.74
2022-08-22T18:40:11.250Z,49.18
2022-08-22T18:43:18.236Z,49.46
2022-08-22T18:45:47.506Z,50.03
2022-08-22T18:48:31.695Z,50.38
2022-08-22T18:51:24.287Z,49.50
2022-08-22T18:53:54.260Z,49.79
2022-08-22T18:56:42.479Z,49.80
2022-08-22T18:59:42.974Z,50.15
2022-08-22T19:02:21.520Z,49.90
2022-08-22T19:04:57.306Z,50.47
2022-08-22T19:07:42.345Z,50.62
2022-08-22T19:11:00.207Z,50.40
2022-08-22T19:14:08.412Z,51.63
2022-08-22T19:16:46.824Z,51.66
2022-08-22T19:19:17.296Z,51.86
2022-08-22T19:22:21.818Z,51.57
2022-08-22T19:25:12.533Z,52.26
2022-08-22T19:27:44.648Z,51.88
2022-08-22T19:30:34.429Z,52.37
2022-08-22T19:33:08.751Z,52.52
2022-08-22T19:35:49.631Z,52.50
2022-08-22T19:38:54.123Z,52.47
2022-08-22T19:41:58.484Z,52.52
2022-08-22T19:45:00.409Z,53.06
2022-08-22T19:47:49.908Z,52.55
2022-08-22T19:50:16.378Z,52.17
2022-08-22T19:52:56.851Z,53.38
2022-08-22T19:55:26.661Z,52.26
2022-08-22T19:58:03.974Z,52.25
2022-08-22T20:01:07.326Z,53.00
2022-08-22T20:03:53.474Z,54.20
2022-08-22T20:06:45.071Z,54.03
2022-08-22T20:09:30.175Z,53.58
2022-08-22T20:12:15.484Z,53.31
2022-08-22T20:14:46.172Z,54.29
2022-08-22T20:17:24.977Z,54.89
2022-08-22T20:22:45.341Z,54.90
2022-08-22T20:25:43.006Z,54.76
2022-08-22T20:28:29.721Z,54.65
2022-08-22T20:31:00.025Z,54.90
2022-08-22T20:33:40.021Z,55.54
2022-08-22T20:36:27.293Z,56.60
2022-08-22T20:39:02.120Z,57.04
2022-08-22T20:41:34.262Z,56.43
2022-08-22T20:44:17.212Z,56.44
2022-08-22T20:46:57.537Z,56.60
2022-08-22T20:49:32.030Z,56.64
2022-08-22T20:52:08.029Z,57.40
2022-08-22T20:54:38.067Z,57.61
2022-08-22T20:57:16.194Z,57.60
2022-08-22T20:59:50.739Z,58.39
2022-08-22T21:02:49.701Z,57.84
2022-08-22T21:05:18.331Z,58.64
2022-08-22T21:07:47.663Z,59.13
2022-08-22T21:10:37.566Z,59.28
2022-08-22T21:13:08.707Z,59.27
2022-08-22T21:15:58.587Z,59.30
2022-08-22T21:18:45.954Z,59.57
2022-08-22T21:21:31.000Z,60.03
2022-08-22T21:24:01.406Z,60.19
2022-08-22T21:26:39.223Z,59.83
2022-08-22T21:29:19.188Z,60.29
2022-08-22T21:31:49.928Z,59.91
2022-08-22T21:34:24.354Z,61.22
2022-08-22T21:36:53.189Z,61.36
2022-08-22T21:39:22.524Z,61.10
2022-08-22T21:42:10.084Z,61.89
2022-08-22T21:44:40.471Z,61.38
2022-08-22T21:47:30.957Z,62.35
2022-08-22T21:49:59.272Z,62.64
2022-08-22T21:52:27.336Z,62.64
2022-08-22T21:54:53.940Z,62.84
2022-08-22T21:57:34.478Z,63.38
2022-08-22T22:00:01.707Z,63.36
2022-08-22T22:02:31.145Z,62.51
2022-08-22T22:04:58.776Z,63.30
2022-08-22T22:07:26.962Z,62.62
2022-08-22T22:09:54.985Z,63.18
2022-08-22T22:12:23.390Z,62.65
2022-08-22T22:14:50.337Z,62.41
2022-08-22T22:17:18.899Z,63.46
2022-08-22T22:19:46.856Z,62.98
2022-08-22T22:22:13.507Z,63.00
2022-08-22T22:24:40.101Z,62.29
2022-08-22T22:27:07.201Z,62.55
2022-08-22T22:29:34.718Z,62.78
2022-08-22T22:32:01.400Z,62.99
2022-08-22T22:34:27.943Z,62.79
2022-08-22T22:36:54.946Z,63.88
2022-08-22T22:39:21.761Z,63.49
2022-08-22T22:41:49.061Z,63.73
2022-08-22T22:44:15.771Z,64.18
2022-08-22T22:46:42.312Z,64.26
2022-08-22T22:49:08.850Z,62.98
2022-08-22T22:51:35.381Z,61.41
2022-08-22T22:54:01.856Z,62.82
2022-08-22T22:56:28.569Z,63.83
2022-08-22T22:58:59.069Z,65.16
2022-08-22T23:01:27.885Z,64.94
2022-08-22T23:04:03.252Z,65.08
2022-08-22T23:06:33.083Z,65.13
2022-08-22T23:08:59.728Z,65.61
2022-08-22T23:11:30.961Z,65.52
2022-08-22T23:13:57.601Z,64.62
2022-08-22T23:16:27.888Z,65.59
2022-08-22T23:18:55.257Z,64.89
2022-08-22T23:21:26.467Z,64.15
2022-08-22T23:23:56.134Z,64.19
2022-08-22T23:26:22.825Z,63.85
2022-08-22T23:28:49.453Z,64.43
2022-08-22T23:31:40.981Z,64.57
2022-08-22T23:34:13.753Z,64.54
2022-08-22T23:36:43.778Z,64.37
2022-08-22T23:39:10.963Z,64.22
2022-08-22T23:41:38.317Z,63.73
2022-08-22T23:44:07.026Z,64.26
2022-08-22T23:46:35.995Z,63.03
2022-08-22T23:49:04.154Z,64.16
2022-08-22T23:51:31.015Z,64.21
2022-08-22T23:53:59.250Z,64.02
2022-08-22T23:56:27.794Z,64.01
2022-08-22T23:58:54.385Z,63.52
